Tipton, KS (67485)

11:30 PM CDT on July 22, 2017 (GMT -0500)
KH Farms | | Change Station
Active Advisory: Areal Flood Advisory Active Notice: Areal Flood Advisory

Elev 1529 ft 39.38 °N, 98.46 °W | Updated 0 second ago

Partly Cloudy
Partly Cloudy
73.0 °F
Feels Like 70 °F
N
0.0
Wind Variable Wind from ENE
Gusts 0.0 mph

Today
High -- | Low -- °F
--% Chance of Precip.
Yesterday
High -- | Low -- °F
Precip. -- in
Pressure 29.86 in
Visibility 10.0 miles
Clouds Clear
Heat Index 70 °F
Dew Point 70 °F
Humidity 91%
Rainfall 0.33 in
Snow Depth Not available.
6:25 AM 8:54 PM
Waning Crescent, 0% visible
METAR KRSL 230353Z AUTO 03010KT 10SM CLR 22/19 A2992 RMK AO2 RAE01 SLP110 P0000 T02220189
Pressure 29.86 in
Visibility 10.0 miles
Clouds Clear
Heat Index 70 °F
Dew Point 70 °F
Humidity 91%
Rainfall 0.33 in
Snow Depth Not available.
6:25 AM 8:54 PM
Waning Crescent, 0% visible
METAR KRSL 230353Z AUTO 03010KT 10SM CLR 22/19 A2992 RMK AO2 RAE01 SLP110 P0000 T02220189

Get Your Daily Forecast Email!

Thanks for signing up!

Be on the lookout for a verification email in your inbox.

You'll start receiving severe weather alerts in your inbox..

×

10-Day Weather Forecast

Almanac

Astronomy

Jul. 22, 2017 Rise Set
Actual Time
Civil Twilight
Nautical Twilight
Astronomical Twilight
Moon
Length of Visible Light
Length of Day
Tomorrow will be .
, % of the Moon is Illuminated

Today's Extremes

State Highs State Lows

Community

WunderPhotos

Category 6

Welcome to Category 6. This is the collective home for Weather Underground's featured writeups by Dr. Jeff Masters (right), Bob Henson (left), Chris Burt, and other regular contributors.

Nearby

Air Quality

  Air Quality AQ Index Pollutant
Not available.

Snow Depth

Station Depth Elevation

Earthquake Activity

City Distance Mag. Time & Date
Minimum magnitude displayed is 2.5.

Coastal Water Temperatures

Place Temperature

Stations

Nearby Weather Stations

Station Location Temp. Windchill Dew Point Humidity Wind Precip. Elev Updated Type
                   

Watches & Warnings

Areal Flood Advisory
Issued: 8:33 PM CDT Jul. 22, 2017 – National Weather Service

The National Weather Service in Hastings has issued a

* flood advisory for...
south central Mitchell County in north central Kansas...

* until 230 am CDT

* at 830 PM CDT, Doppler radar indicated heavy rain due to
thunderstorms. This will cause minor flooding in the advisory area.
1 to 3 inches of rain have fallen.

Additional rainfall of 1 to 2 inches is expected over the area. This
additional rain will result in minor flooding.

This includes the following streams and drainages... Rock Creek...
leban creek... little Salt Creek... Walnut Creek... fourth creek... Salt
Creek... Antelope Creek... fifth creek... West Rock creek and Marshall
Creek.

Precautionary/preparedness actions...

Turn around, don't drown when encountering flooded roads. Most flood
deaths occur in vehicles.


Lat... Lon 3937 9806 3922 9804 3922 9834 3935 9834
      3937 9819


Wesely